sensor_id;sensor_type;location;lat;lon;timestamp;P1;durP1;ratioP1;P2;durP2;ratioP2
18166;SDS011;9208;42.688;23.404;2023-07-20T00:01:06;4.33;;;2.00;;
18166;SDS011;9208;42.688;23.404;2023-07-20T00:03:31;5.07;;;2.20;;
18166;SDS011;9208;42.688;23.404;2023-07-20T00:05:57;3.90;;;2.00;;
18166;SDS011;9208;42.688;23.404;2023-07-20T00:08:23;5.23;;;2.10;;
18166;SDS011;9208;42.688;23.404;2023-07-20T00:10:48;5.20;;;2.40;;
18166;SDS011;9208;42.688;23.404;2023-07-20T00:13:13;6.53;;;2.60;;
18166;SDS011;9208;42.688;23.404;2023-07-20T00:15:40;4.87;;;2.23;;
18166;SDS011;9208;42.688;23.404;2023-07-20T00:18:07;5.13;;;2.13;;
18166;SDS011;9208;42.688;23.404;2023-07-20T00:20:32;4.33;;;2.00;;
18166;SDS011;9208;42.688;23.404;2023-07-20T00:22:58;6.97;;;2.40;;
18166;SDS011;9208;42.688;23.404;2023-07-20T00:25:24;5.33;;;2.17;;
18166;SDS011;9208;42.688;23.404;2023-07-20T00:27:49;5.73;;;2.40;;
18166;SDS011;9208;42.688;23.404;2023-07-20T00:30:15;3.93;;;2.20;;
18166;SDS011;9208;42.688;23.404;2023-07-20T00:32:44;3.77;;;2.13;;
18166;SDS011;9208;42.688;23.404;2023-07-20T00:35:12;4.30;;;2.00;;
18166;SDS011;9208;42.688;23.404;2023-07-20T00:37:39;7.07;;;2.47;;
18166;SDS011;9208;42.688;23.404;2023-07-20T00:40:04;3.37;;;2.20;;
18166;SDS011;9208;42.688;23.404;2023-07-20T00:42:30;4.23;;;2.27;;
18166;SDS011;9208;42.688;23.404;2023-07-20T00:44:55;6.00;;;2.23;;
18166;SDS011;9208;42.688;23.404;2023-07-20T00:47:20;4.23;;;2.10;;
18166;SDS011;9208;42.688;23.404;2023-07-20T00:49:46;3.03;;;2.20;;
18166;SDS011;9208;42.688;23.404;2023-07-20T00:52:11;2.80;;;2.00;;
18166;SDS011;9208;42.688;23.404;2023-07-20T00:54:37;3.63;;;2.10;;
18166;SDS011;9208;42.688;23.404;2023-07-20T00:57:03;6.37;;;2.60;;
18166;SDS011;9208;42.688;23.404;2023-07-20T00:59:29;5.27;;;2.57;;
18166;SDS011;9208;42.688;23.404;2023-07-20T01:01:54;3.40;;;2.10;;
18166;SDS011;9208;42.688;23.404;2023-07-20T01:04:20;5.60;;;2.10;;
18166;SDS011;9208;42.688;23.404;2023-07-20T01:06:53;7.37;;;2.37;;
18166;SDS011;9208;42.688;23.404;2023-07-20T01:09:34;4.17;;;2.40;;
18166;SDS011;9208;42.688;23.404;2023-07-20T01:12:13;6.93;;;2.53;;
18166;SDS011;9208;42.688;23.404;2023-07-20T01:14:40;4.67;;;2.17;;
18166;SDS011;9208;42.688;23.404;2023-07-20T01:17:05;4.30;;;2.30;;
18166;SDS011;9208;42.688;23.404;2023-07-20T01:19:30;5.73;;;2.40;;
18166;SDS011;9208;42.688;23.404;2023-07-20T01:21:59;4.30;;;2.50;;
18166;SDS011;9208;42.688;23.404;2023-07-20T01:29:35;5.20;;;2.40;;
18166;SDS011;9208;42.688;23.404;2023-07-20T01:32:06;6.73;;;2.43;;
18166;SDS011;9208;42.688;23.404;2023-07-20T01:34:34;4.43;;;2.53;;
18166;SDS011;9208;42.688;23.404;2023-07-20T01:37:00;5.17;;;2.30;;
18166;SDS011;9208;42.688;23.404;2023-07-20T01:39:26;5.80;;;2.57;;
18166;SDS011;9208;42.688;23.404;2023-07-20T01:41:52;5.93;;;2.47;;
18166;SDS011;9208;42.688;23.404;2023-07-20T01:44:17;6.10;;;2.53;;
18166;SDS011;9208;42.688;23.404;2023-07-20T01:46:43;4.43;;;2.30;;
18166;SDS011;9208;42.688;23.404;2023-07-20T01:49:08;5.23;;;2.20;;
18166;SDS011;9208;42.688;23.404;2023-07-20T01:51:33;6.13;;;2.47;;
18166;SDS011;9208;42.688;23.404;2023-07-20T01:53:59;5.50;;;2.20;;
18166;SDS011;9208;42.688;23.404;2023-07-20T01:56:24;7.30;;;3.00;;
18166;SDS011;9208;42.688;23.404;2023-07-20T01:58:50;3.60;;;2.50;;
18166;SDS011;9208;42.688;23.404;2023-07-20T02:01:15;4.77;;;2.60;;
18166;SDS011;9208;42.688;23.404;2023-07-20T02:03:40;6.67;;;2.67;;
18166;SDS011;9208;42.688;23.404;2023-07-20T02:06:06;4.07;;;2.33;;
18166;SDS011;9208;42.688;23.404;2023-07-20T02:08:31;6.10;;;3.43;;
18166;SDS011;9208;42.688;23.404;2023-07-20T02:10:56;6.53;;;3.00;;
18166;SDS011;9208;42.688;23.404;2023-07-20T02:13:21;4.77;;;3.03;;
18166;SDS011;9208;42.688;23.404;2023-07-20T02:15:47;5.43;;;2.60;;
18166;SDS011;9208;42.688;23.404;2023-07-20T02:18:14;2.87;;;2.60;;
18166;SDS011;9208;42.688;23.404;2023-07-20T02:20:40;3.50;;;2.47;;
18166;SDS011;9208;42.688;23.404;2023-07-20T02:23:05;6.90;;;2.70;;
18166;SDS011;9208;42.688;23.404;2023-07-20T02:25:31;6.17;;;2.97;;
18166;SDS011;9208;42.688;23.404;2023-07-20T02:27:56;4.37;;;2.70;;
18166;SDS011;9208;42.688;23.404;2023-07-20T02:30:21;5.97;;;2.73;;
18166;SDS011;9208;42.688;23.404;2023-07-20T02:32:46;6.87;;;3.03;;
18166;SDS011;9208;42.688;23.404;2023-07-20T02:35:13;5.77;;;2.50;;
18166;SDS011;9208;42.688;23.404;2023-07-20T02:37:38;6.50;;;2.57;;
18166;SDS011;9208;42.688;23.404;2023-07-20T02:40:04;8.40;;;2.97;;
18166;SDS011;9208;42.688;23.404;2023-07-20T02:42:30;5.47;;;2.73;;
18166;SDS011;9208;42.688;23.404;2023-07-20T02:44:55;7.23;;;2.90;;
18166;SDS011;9208;42.688;23.404;2023-07-20T02:47:21;8.80;;;3.20;;
18166;SDS011;9208;42.688;23.404;2023-07-20T02:49:46;6.20;;;3.03;;
18166;SDS011;9208;42.688;23.404;2023-07-20T02:52:11;5.27;;;3.13;;
18166;SDS011;9208;42.688;23.404;2023-07-20T02:54:37;10.50;;;3.30;;
18166;SDS011;9208;42.688;23.404;2023-07-20T02:57:05;9.13;;;3.23;;
18166;SDS011;9208;42.688;23.404;2023-07-20T02:59:30;6.83;;;3.57;;
18166;SDS011;9208;42.688;23.404;2023-07-20T03:01:56;7.87;;;3.50;;
18166;SDS011;9208;42.688;23.404;2023-07-20T03:04:22;7.77;;;3.37;;
18166;SDS011;9208;42.688;23.404;2023-07-20T03:06:49;7.10;;;2.97;;
18166;SDS011;9208;42.688;23.404;2023-07-20T03:09:14;7.87;;;2.73;;
18166;SDS011;9208;42.688;23.404;2023-07-20T03:11:40;4.00;;;2.93;;
18166;SDS011;9208;42.688;23.404;2023-07-20T03:14:06;6.37;;;3.37;;
18166;SDS011;9208;42.688;23.404;2023-07-20T03:16:31;8.97;;;3.70;;
18166;SDS011;9208;42.688;23.404;2023-07-20T03:18:58;5.90;;;3.17;;
18166;SDS011;9208;42.688;23.404;2023-07-20T03:21:24;5.60;;;3.17;;
18166;SDS011;9208;42.688;23.404;2023-07-20T03:23:49;6.13;;;2.40;;
18166;SDS011;9208;42.688;23.404;2023-07-20T03:26:14;4.13;;;2.63;;
18166;SDS011;9208;42.688;23.404;2023-07-20T03:28:40;6.63;;;2.70;;
18166;SDS011;9208;42.688;23.404;2023-07-20T03:31:05;5.47;;;2.60;;
18166;SDS011;9208;42.688;23.404;2023-07-20T03:33:31;5.57;;;2.73;;
18166;SDS011;9208;42.688;23.404;2023-07-20T03:35:56;8.73;;;2.60;;
18166;SDS011;9208;42.688;23.404;2023-07-20T03:38:22;5.43;;;2.80;;
18166;SDS011;9208;42.688;23.404;2023-07-20T03:40:51;5.17;;;2.70;;
18166;SDS011;9208;42.688;23.404;2023-07-20T03:43:17;3.87;;;3.17;;
18166;SDS011;9208;42.688;23.404;2023-07-20T03:45:42;4.40;;;2.90;;
18166;SDS011;9208;42.688;23.404;2023-07-20T03:48:07;6.40;;;2.60;;
18166;SDS011;9208;42.688;23.404;2023-07-20T03:50:33;6.60;;;2.80;;
18166;SDS011;9208;42.688;23.404;2023-07-20T03:52:58;7.60;;;3.07;;
18166;SDS011;9208;42.688;23.404;2023-07-20T03:55:23;3.80;;;2.87;;
18166;SDS011;9208;42.688;23.404;2023-07-20T03:57:49;7.20;;;3.13;;
18166;SDS011;9208;42.688;23.404;2023-07-20T04:00:16;6.17;;;3.30;;
18166;SDS011;9208;42.688;23.404;2023-07-20T04:02:44;5.63;;;3.33;;
18166;SDS011;9208;42.688;23.404;2023-07-20T04:05:09;7.20;;;3.20;;
18166;SDS011;9208;42.688;23.404;2023-07-20T04:07:34;7.17;;;3.70;;
18166;SDS011;9208;42.688;23.404;2023-07-20T04:10:00;7.70;;;5.10;;
18166;SDS011;9208;42.688;23.404;2023-07-20T04:12:25;3.93;;;3.10;;
18166;SDS011;9208;42.688;23.404;2023-07-20T04:14:50;10.13;;;3.00;;
18166;SDS011;9208;42.688;23.404;2023-07-20T04:17:15;5.90;;;3.07;;
18166;SDS011;9208;42.688;23.404;2023-07-20T04:19:40;4.03;;;3.07;;
18166;SDS011;9208;42.688;23.404;2023-07-20T04:22:06;4.33;;;3.10;;
18166;SDS011;9208;42.688;23.404;2023-07-20T04:24:31;5.63;;;3.50;;
18166;SDS011;9208;42.688;23.404;2023-07-20T04:26:56;5.43;;;3.27;;
18166;SDS011;9208;42.688;23.404;2023-07-20T04:29:21;7.07;;;3.60;;
18166;SDS011;9208;42.688;23.404;2023-07-20T04:31:47;7.53;;;3.73;;
18166;SDS011;9208;42.688;23.404;2023-07-20T04:34:12;6.40;;;3.40;;
18166;SDS011;9208;42.688;23.404;2023-07-20T04:36:37;6.83;;;3.23;;
18166;SDS011;9208;42.688;23.404;2023-07-20T04:39:03;4.47;;;3.03;;
18166;SDS011;9208;42.688;23.404;2023-07-20T04:41:30;8.57;;;3.00;;
18166;SDS011;9208;42.688;23.404;2023-07-20T04:43:55;6.17;;;3.50;;
18166;SDS011;9208;42.688;23.404;2023-07-20T04:46:20;5.83;;;2.97;;
18166;SDS011;9208;42.688;23.404;2023-07-20T04:48:46;3.90;;;2.93;;
18166;SDS011;9208;42.688;23.404;2023-07-20T04:51:12;6.10;;;3.03;;
18166;SDS011;9208;42.688;23.404;2023-07-20T04:53:38;5.27;;;3.20;;
18166;SDS011;9208;42.688;23.404;2023-07-20T04:56:03;8.20;;;4.23;;
18166;SDS011;9208;42.688;23.404;2023-07-20T04:58:28;13.50;;;4.10;;
18166;SDS011;9208;42.688;23.404;2023-07-20T05:00:53;7.60;;;3.90;;
18166;SDS011;9208;42.688;23.404;2023-07-20T05:03:19;4.80;;;3.40;;
18166;SDS011;9208;42.688;23.404;2023-07-20T05:05:44;8.10;;;3.33;;
18166;SDS011;9208;42.688;23.404;2023-07-20T05:08:09;6.10;;;3.10;;
18166;SDS011;9208;42.688;23.404;2023-07-20T05:10:35;6.97;;;3.50;;
18166;SDS011;9208;42.688;23.404;2023-07-20T05:13:00;5.77;;;3.10;;
18166;SDS011;9208;42.688;23.404;2023-07-20T05:15:25;6.30;;;3.43;;
18166;SDS011;9208;42.688;23.404;2023-07-20T05:17:51;7.77;;;3.60;;
18166;SDS011;9208;42.688;23.404;2023-07-20T05:20:16;7.07;;;3.53;;
18166;SDS011;9208;42.688;23.404;2023-07-20T05:22:42;4.27;;;2.77;;
18166;SDS011;9208;42.688;23.404;2023-07-20T05:25:07;5.27;;;3.17;;
18166;SDS011;9208;42.688;23.404;2023-07-20T05:27:33;5.13;;;3.13;;
18166;SDS011;9208;42.688;23.404;2023-07-20T05:29:58;4.43;;;3.20;;
18166;SDS011;9208;42.688;23.404;2023-07-20T05:32:23;5.27;;;2.90;;
18166;SDS011;9208;42.688;23.404;2023-07-20T05:34:51;4.33;;;3.20;;
18166;SDS011;9208;42.688;23.404;2023-07-20T05:37:16;7.77;;;3.13;;
18166;SDS011;9208;42.688;23.404;2023-07-20T05:39:41;8.23;;;3.17;;
18166;SDS011;9208;42.688;23.404;2023-07-20T05:42:07;10.63;;;3.57;;
18166;SDS011;9208;42.688;23.404;2023-07-20T05:44:32;22.20;;;5.37;;
18166;SDS011;9208;42.688;23.404;2023-07-20T05:46:57;20.77;;;5.30;;
18166;SDS011;9208;42.688;23.404;2023-07-20T05:49:22;8.30;;;3.47;;
18166;SDS011;9208;42.688;23.404;2023-07-20T05:51:48;7.03;;;3.40;;
18166;SDS011;9208;42.688;23.404;2023-07-20T05:54:13;9.20;;;3.93;;
18166;SDS011;9208;42.688;23.404;2023-07-20T05:56:38;9.10;;;3.63;;
18166;SDS011;9208;42.688;23.404;2023-07-20T05:59:04;5.13;;;3.07;;
18166;SDS011;9208;42.688;23.404;2023-07-20T06:01:29;8.17;;;3.27;;
18166;SDS011;9208;42.688;23.404;2023-07-20T06:03:54;6.73;;;3.80;;
18166;SDS011;9208;42.688;23.404;2023-07-20T06:06:19;5.07;;;3.47;;
18166;SDS011;9208;42.688;23.404;2023-07-20T06:08:45;5.47;;;3.17;;
18166;SDS011;9208;42.688;23.404;2023-07-20T06:11:11;9.60;;;4.20;;
18166;SDS011;9208;42.688;23.404;2023-07-20T06:13:36;8.00;;;3.20;;
18166;SDS011;9208;42.688;23.404;2023-07-20T06:16:02;7.07;;;3.50;;
18166;SDS011;9208;42.688;23.404;2023-07-20T06:18:28;12.10;;;3.83;;
18166;SDS011;9208;42.688;23.404;2023-07-20T06:20:53;10.97;;;4.43;;
18166;SDS011;9208;42.688;23.404;2023-07-20T06:23:19;10.03;;;4.00;;
18166;SDS011;9208;42.688;23.404;2023-07-20T06:25:44;6.30;;;3.40;;
18166;SDS011;9208;42.688;23.404;2023-07-20T06:28:10;7.60;;;3.70;;
18166;SDS011;9208;42.688;23.404;2023-07-20T06:30:35;6.30;;;3.30;;
18166;SDS011;9208;42.688;23.404;2023-07-20T06:33:01;10.93;;;4.03;;
18166;SDS011;9208;42.688;23.404;2023-07-20T06:35:26;10.00;;;3.30;;
18166;SDS011;9208;42.688;23.404;2023-07-20T06:37:51;7.40;;;3.20;;
18166;SDS011;9208;42.688;23.404;2023-07-20T06:40:17;5.87;;;3.20;;
18166;SDS011;9208;42.688;23.404;2023-07-20T06:42:42;9.57;;;3.63;;
18166;SDS011;9208;42.688;23.404;2023-07-20T06:45:08;4.97;;;3.00;;
18166;SDS011;9208;42.688;23.404;2023-07-20T06:47:34;8.37;;;3.67;;
18166;SDS011;9208;42.688;23.404;2023-07-20T06:49:59;6.87;;;3.13;;
18166;SDS011;9208;42.688;23.404;2023-07-20T06:52:24;6.43;;;3.37;;
18166;SDS011;9208;42.688;23.404;2023-07-20T06:54:49;7.37;;;3.60;;
18166;SDS011;9208;42.688;23.404;2023-07-20T06:57:15;8.53;;;3.53;;
18166;SDS011;9208;42.688;23.404;2023-07-20T06:59:40;8.00;;;3.40;;
18166;SDS011;9208;42.688;23.404;2023-07-20T07:02:05;9.43;;;3.40;;
18166;SDS011;9208;42.688;23.404;2023-07-20T07:04:31;6.93;;;3.43;;
18166;SDS011;9208;42.688;23.404;2023-07-20T07:06:56;6.20;;;3.73;;
18166;SDS011;9208;42.688;23.404;2023-07-20T07:09:22;6.70;;;3.70;;
18166;SDS011;9208;42.688;23.404;2023-07-20T07:11:47;11.13;;;3.70;;
18166;SDS011;9208;42.688;23.404;2023-07-20T07:14:12;5.10;;;3.33;;
18166;SDS011;9208;42.688;23.404;2023-07-20T07:16:38;6.83;;;3.70;;
18166;SDS011;9208;42.688;23.404;2023-07-20T07:19:03;7.80;;;3.80;;
18166;SDS011;9208;42.688;23.404;2023-07-20T07:21:30;9.50;;;3.87;;
18166;SDS011;9208;42.688;23.404;2023-07-20T07:23:55;6.50;;;3.50;;
18166;SDS011;9208;42.688;23.404;2023-07-20T07:26:22;7.23;;;3.27;;
18166;SDS011;9208;42.688;23.404;2023-07-20T07:28:48;5.87;;;3.40;;
18166;SDS011;9208;42.688;23.404;2023-07-20T07:31:13;7.67;;;3.57;;
18166;SDS011;9208;42.688;23.404;2023-07-20T07:33:39;5.10;;;3.13;;
18166;SDS011;9208;42.688;23.404;2023-07-20T07:36:04;5.83;;;3.20;;
18166;SDS011;9208;42.688;23.404;2023-07-20T07:38:30;7.73;;;3.40;;
18166;SDS011;9208;42.688;23.404;2023-07-20T07:40:55;6.03;;;3.67;;
18166;SDS011;9208;42.688;23.404;2023-07-20T07:43:20;6.27;;;3.40;;
18166;SDS011;9208;42.688;23.404;2023-07-20T07:45:46;5.83;;;3.47;;
18166;SDS011;9208;42.688;23.404;2023-07-20T07:48:11;5.60;;;3.03;;
18166;SDS011;9208;42.688;23.404;2023-07-20T07:50:37;6.50;;;3.60;;
18166;SDS011;9208;42.688;23.404;2023-07-20T07:53:05;5.87;;;3.33;;
18166;SDS011;9208;42.688;23.404;2023-07-20T07:55:32;6.60;;;3.30;;
18166;SDS011;9208;42.688;23.404;2023-07-20T07:57:57;9.20;;;3.90;;
18166;SDS011;9208;42.688;23.404;2023-07-20T08:00:22;6.20;;;3.93;;
18166;SDS011;9208;42.688;23.404;2023-07-20T08:02:49;7.10;;;4.20;;
18166;SDS011;9208;42.688;23.404;2023-07-20T08:05:15;7.60;;;4.03;;
18166;SDS011;9208;42.688;23.404;2023-07-20T08:07:40;6.50;;;3.90;;
18166;SDS011;9208;42.688;23.404;2023-07-20T08:10:05;6.97;;;3.70;;
18166;SDS011;9208;42.688;23.404;2023-07-20T08:12:31;5.03;;;3.27;;
18166;SDS011;9208;42.688;23.404;2023-07-20T08:14:56;6.43;;;3.67;;
18166;SDS011;9208;42.688;23.404;2023-07-20T08:17:22;8.53;;;4.10;;
18166;SDS011;9208;42.688;23.404;2023-07-20T08:19:47;5.07;;;3.07;;
18166;SDS011;9208;42.688;23.404;2023-07-20T08:22:12;8.83;;;3.80;;
18166;SDS011;9208;42.688;23.404;2023-07-20T08:24:40;6.20;;;3.70;;
18166;SDS011;9208;42.688;23.404;2023-07-20T08:27:06;6.33;;;3.40;;
18166;SDS011;9208;42.688;23.404;2023-07-20T08:29:31;7.57;;;3.90;;
18166;SDS011;9208;42.688;23.404;2023-07-20T08:31:56;7.37;;;4.20;;
18166;SDS011;9208;42.688;23.404;2023-07-20T08:34:22;7.10;;;3.83;;
18166;SDS011;9208;42.688;23.404;2023-07-20T08:36:47;9.27;;;3.63;;
18166;SDS011;9208;42.688;23.404;2023-07-20T08:39:12;8.40;;;3.53;;
18166;SDS011;9208;42.688;23.404;2023-07-20T08:41:38;7.50;;;3.23;;
18166;SDS011;9208;42.688;23.404;2023-07-20T08:44:04;4.73;;;2.87;;
18166;SDS011;9208;42.688;23.404;2023-07-20T08:46:29;7.97;;;3.10;;
18166;SDS011;9208;42.688;23.404;2023-07-20T08:48:55;7.43;;;3.03;;
18166;SDS011;9208;42.688;23.404;2023-07-20T08:51:21;7.33;;;2.93;;
18166;SDS011;9208;42.688;23.404;2023-07-20T08:53:47;7.10;;;2.40;;
18166;SDS011;9208;42.688;23.404;2023-07-20T08:56:13;6.77;;;3.10;;
18166;SDS011;9208;42.688;23.404;2023-07-20T08:58:39;9.40;;;3.00;;
18166;SDS011;9208;42.688;23.404;2023-07-20T09:01:04;4.80;;;3.00;;
18166;SDS011;9208;42.688;23.404;2023-07-20T09:03:30;6.20;;;2.87;;
18166;SDS011;9208;42.688;23.404;2023-07-20T09:05:55;5.53;;;2.63;;
18166;SDS011;9208;42.688;23.404;2023-07-20T09:08:20;7.53;;;3.00;;
18166;SDS011;9208;42.688;23.404;2023-07-20T09:10:45;5.37;;;2.60;;
18166;SDS011;9208;42.688;23.404;2023-07-20T09:13:14;6.33;;;2.60;;
18166;SDS011;9208;42.688;23.404;2023-07-20T09:15:45;7.03;;;3.10;;
18166;SDS011;9208;42.688;23.404;2023-07-20T09:18:11;19.70;;;5.73;;
18166;SDS011;9208;42.688;23.404;2023-07-20T09:20:36;10.00;;;3.10;;
18166;SDS011;9208;42.688;23.404;2023-07-20T09:23:04;4.03;;;2.50;;
18166;SDS011;9208;42.688;23.404;2023-07-20T09:25:29;5.63;;;2.30;;
18166;SDS011;9208;42.688;23.404;2023-07-20T09:27:55;4.73;;;2.60;;
18166;SDS011;9208;42.688;23.404;2023-07-20T09:30:21;4.60;;;2.17;;
18166;SDS011;9208;42.688;23.404;2023-07-20T09:32:49;4.63;;;2.30;;
18166;SDS011;9208;42.688;23.404;2023-07-20T09:35:18;7.37;;;3.07;;
18166;SDS011;9208;42.688;23.404;2023-07-20T09:37:48;5.43;;;2.57;;
18166;SDS011;9208;42.688;23.404;2023-07-20T09:40:16;5.23;;;2.50;;
18166;SDS011;9208;42.688;23.404;2023-07-20T09:42:43;7.53;;;2.43;;
18166;SDS011;9208;42.688;23.404;2023-07-20T09:45:08;9.03;;;3.17;;
18166;SDS011;9208;42.688;23.404;2023-07-20T09:47:35;6.73;;;2.50;;
18166;SDS011;9208;42.688;23.404;2023-07-20T09:50:01;5.60;;;2.57;;
18166;SDS011;9208;42.688;23.404;2023-07-20T09:52:26;5.37;;;2.50;;
18166;SDS011;9208;42.688;23.404;2023-07-20T09:54:52;6.47;;;2.50;;
18166;SDS011;9208;42.688;23.404;2023-07-20T09:57:17;5.13;;;2.40;;
18166;SDS011;9208;42.688;23.404;2023-07-20T09:59:43;5.15;;;2.10;;
18166;SDS011;9208;42.688;23.404;2023-07-20T10:02:11;7.50;;;3.03;;
18166;SDS011;9208;42.688;23.404;2023-07-20T10:04:40;5.13;;;2.45;;
18166;SDS011;9208;42.688;23.404;2023-07-20T10:07:07;5.63;;;2.40;;
18166;SDS011;9208;42.688;23.404;2023-07-20T10:09:35;3.20;;;2.25;;
18166;SDS011;9208;42.688;23.404;2023-07-20T10:12:04;5.10;;;2.53;;
18166;SDS011;9208;42.688;23.404;2023-07-20T10:14:29;5.05;;;2.65;;
18166;SDS011;9208;42.688;23.404;2023-07-20T10:16:58;11.93;;;3.33;;
18166;SDS011;9208;42.688;23.404;2023-07-20T10:22:19;5.45;;;2.90;;
18166;SDS011;9208;42.688;23.404;2023-07-20T10:24:45;5.28;;;2.88;;
18166;SDS011;9208;42.688;23.404;2023-07-20T10:27:10;7.40;;;2.75;;
18166;SDS011;9208;42.688;23.404;2023-07-20T10:29:36;6.68;;;2.70;;
18166;SDS011;9208;42.688;23.404;2023-07-20T10:32:02;5.13;;;2.10;;
18166;SDS011;9208;42.688;23.404;2023-07-20T10:34:27;9.05;;;2.50;;
18166;SDS011;9208;42.688;23.404;2023-07-20T10:36:53;8.48;;;2.85;;
18166;SDS011;9208;42.688;23.404;2023-07-20T10:39:24;3.63;;;2.20;;
18166;SDS011;9208;42.688;23.404;2023-07-20T10:41:50;5.38;;;2.53;;
18166;SDS011;9208;42.688;23.404;2023-07-20T10:44:15;4.75;;;2.72;;
18166;SDS011;9208;42.688;23.404;2023-07-20T10:46:45;6.18;;;2.80;;
18166;SDS011;9208;42.688;23.404;2023-07-20T10:49:11;6.03;;;2.58;;
18166;SDS011;9208;42.688;23.404;2023-07-20T10:56:40;5.63;;;2.97;;
18166;SDS011;9208;42.688;23.404;2023-07-20T10:59:17;9.18;;;4.75;;
18166;SDS011;9208;42.688;23.404;2023-07-20T11:01:44;6.78;;;3.60;;
18166;SDS011;9208;42.688;23.404;2023-07-20T11:04:10;3.97;;;2.20;;
18166;SDS011;9208;42.688;23.404;2023-07-20T11:06:35;4.80;;;2.67;;
18166;SDS011;9208;42.688;23.404;2023-07-20T11:09:07;5.63;;;2.58;;
18166;SDS011;9208;42.688;23.404;2023-07-20T11:11:33;4.50;;;2.63;;
18166;SDS011;9208;42.688;23.404;2023-07-20T11:14:06;5.57;;;2.95;;
18166;SDS011;9208;42.688;23.404;2023-07-20T11:19:13;6.30;;;2.92;;
18166;SDS011;9208;42.688;23.404;2023-07-20T11:21:40;4.30;;;2.40;;
18166;SDS011;9208;42.688;23.404;2023-07-20T11:24:06;5.97;;;2.55;;
18166;SDS011;9208;42.688;23.404;2023-07-20T11:26:45;9.10;;;8.30;;
18166;SDS011;9208;42.688;23.404;2023-07-20T11:29:11;10.20;;;5.70;;
18166;SDS011;9208;42.688;23.404;2023-07-20T11:31:40;7.13;;;4.10;;
18166;SDS011;9208;42.688;23.404;2023-07-20T11:34:05;7.05;;;3.70;;
18166;SDS011;9208;42.688;23.404;2023-07-20T11:36:31;5.43;;;3.28;;
18166;SDS011;9208;42.688;23.404;2023-07-20T11:38:56;9.52;;;3.90;;
18166;SDS011;9208;42.688;23.404;2023-07-20T11:41:22;8.05;;;3.88;;
18166;SDS011;9208;42.688;23.404;2023-07-20T11:43:47;5.72;;;3.17;;
18166;SDS011;9208;42.688;23.404;2023-07-20T11:46:12;7.82;;;3.60;;
18166;SDS011;9208;42.688;23.404;2023-07-20T11:48:38;10.52;;;3.95;;
18166;SDS011;9208;42.688;23.404;2023-07-20T11:51:05;7.32;;;3.40;;
18166;SDS011;9208;42.688;23.404;2023-07-20T11:53:30;6.32;;;3.40;;
18166;SDS011;9208;42.688;23.404;2023-07-20T11:55:56;7.93;;;3.25;;
18166;SDS011;9208;42.688;23.404;2023-07-20T11:58:21;6.55;;;3.30;;
18166;SDS011;9208;42.688;23.404;2023-07-20T12:00:47;6.00;;;3.40;;
18166;SDS011;9208;42.688;23.404;2023-07-20T12:03:12;5.97;;;3.08;;
18166;SDS011;9208;42.688;23.404;2023-07-20T12:05:38;6.90;;;3.83;;
18166;SDS011;9208;42.688;23.404;2023-07-20T12:08:03;9.48;;;3.40;;
18166;SDS011;9208;42.688;23.404;2023-07-20T12:10:29;5.43;;;3.33;;
18166;SDS011;9208;42.688;23.404;2023-07-20T12:13:00;5.38;;;3.03;;
18166;SDS011;9208;42.688;23.404;2023-07-20T12:15:26;8.95;;;3.42;;
18166;SDS011;9208;42.688;23.404;2023-07-20T12:17:55;5.47;;;2.90;;
18166;SDS011;9208;42.688;23.404;2023-07-20T12:20:28;3.75;;;3.10;;
18166;SDS011;9208;42.688;23.404;2023-07-20T12:22:55;5.30;;;2.75;;
18166;SDS011;9208;42.688;23.404;2023-07-20T12:25:20;6.60;;;2.95;;
18166;SDS011;9208;42.688;23.404;2023-07-20T12:27:45;4.25;;;2.58;;
18166;SDS011;9208;42.688;23.404;2023-07-20T12:30:12;4.22;;;2.90;;
18166;SDS011;9208;42.688;23.404;2023-07-20T12:32:38;4.07;;;2.97;;
18166;SDS011;9208;42.688;23.404;2023-07-20T12:35:04;7.32;;;3.30;;
18166;SDS011;9208;42.688;23.404;2023-07-20T12:37:29;4.80;;;3.03;;
18166;SDS011;9208;42.688;23.404;2023-07-20T12:39:54;4.70;;;3.00;;
18166;SDS011;9208;42.688;23.404;2023-07-20T12:42:19;3.75;;;2.58;;
18166;SDS011;9208;42.688;23.404;2023-07-20T12:44:45;6.70;;;2.88;;
18166;SDS011;9208;42.688;23.404;2023-07-20T12:47:10;5.18;;;2.88;;
18166;SDS011;9208;42.688;23.404;2023-07-20T12:49:36;5.20;;;3.08;;
18166;SDS011;9208;42.688;23.404;2023-07-20T12:52:01;5.22;;;2.83;;
18166;SDS011;9208;42.688;23.404;2023-07-20T12:54:26;4.75;;;2.60;;
18166;SDS011;9208;42.688;23.404;2023-07-20T12:56:51;5.95;;;2.60;;
18166;SDS011;9208;42.688;23.404;2023-07-20T12:59:17;6.70;;;3.97;;
18166;SDS011;9208;42.688;23.404;2023-07-20T13:01:42;5.03;;;3.15;;
18166;SDS011;9208;42.688;23.404;2023-07-20T13:04:08;4.90;;;3.20;;
18166;SDS011;9208;42.688;23.404;2023-07-20T13:06:35;8.05;;;2.90;;
18166;SDS011;9208;42.688;23.404;2023-07-20T13:09:00;5.88;;;2.67;;
18166;SDS011;9208;42.688;23.404;2023-07-20T13:11:25;3.80;;;2.22;;
18166;SDS011;9208;42.688;23.404;2023-07-20T13:13:51;3.45;;;2.70;;
18166;SDS011;9208;42.688;23.404;2023-07-20T13:16:16;3.20;;;2.47;;
18166;SDS011;9208;42.688;23.404;2023-07-20T13:18:42;4.82;;;2.55;;
18166;SDS011;9208;42.688;23.404;2023-07-20T13:21:10;5.20;;;2.67;;
18166;SDS011;9208;42.688;23.404;2023-07-20T13:23:37;8.25;;;2.70;;
18166;SDS011;9208;42.688;23.404;2023-07-20T13:26:02;5.22;;;2.70;;
18166;SDS011;9208;42.688;23.404;2023-07-20T13:28:28;6.18;;;2.50;;
18166;SDS011;9208;42.688;23.404;2023-07-20T13:30:53;6.55;;;2.53;;
18166;SDS011;9208;42.688;23.404;2023-07-20T13:33:18;7.95;;;2.78;;
18166;SDS011;9208;42.688;23.404;2023-07-20T13:35:43;6.13;;;2.30;;
18166;SDS011;9208;42.688;23.404;2023-07-20T13:38:09;4.68;;;2.38;;
18166;SDS011;9208;42.688;23.404;2023-07-20T13:40:35;6.13;;;2.58;;
18166;SDS011;9208;42.688;23.404;2023-07-20T13:43:02;4.78;;;2.53;;
18166;SDS011;9208;42.688;23.404;2023-07-20T13:45:27;6.28;;;2.95;;
18166;SDS011;9208;42.688;23.404;2023-07-20T13:47:52;3.22;;;2.42;;
18166;SDS011;9208;42.688;23.404;2023-07-20T13:50:17;7.00;;;2.72;;
18166;SDS011;9208;42.688;23.404;2023-07-20T13:52:43;3.50;;;2.65;;
18166;SDS011;9208;42.688;23.404;2023-07-20T13:55:08;7.25;;;2.50;;
18166;SDS011;9208;42.688;23.404;2023-07-20T13:57:33;5.07;;;2.38;;
18166;SDS011;9208;42.688;23.404;2023-07-20T13:59:59;3.58;;;2.10;;
18166;SDS011;9208;42.688;23.404;2023-07-20T14:02:25;6.32;;;2.65;;
18166;SDS011;9208;42.688;23.404;2023-07-20T14:04:51;6.13;;;2.40;;
18166;SDS011;9208;42.688;23.404;2023-07-20T14:07:16;5.50;;;2.40;;
18166;SDS011;9208;42.688;23.404;2023-07-20T14:09:41;3.30;;;2.58;;
18166;SDS011;9208;42.688;23.404;2023-07-20T14:12:06;5.07;;;2.53;;
18166;SDS011;9208;42.688;23.404;2023-07-20T14:14:33;6.15;;;2.50;;
18166;SDS011;9208;42.688;23.404;2023-07-20T14:16:58;3.90;;;2.20;;
18166;SDS011;9208;42.688;23.404;2023-07-20T14:19:23;3.67;;;2.25;;
18166;SDS011;9208;42.688;23.404;2023-07-20T14:21:49;5.40;;;2.35;;
18166;SDS011;9208;42.688;23.404;2023-07-20T14:24:14;2.55;;;2.20;;
18166;SDS011;9208;42.688;23.404;2023-07-20T14:26:39;5.78;;;2.42;;
18166;SDS011;9208;42.688;23.404;2023-07-20T14:29:05;4.13;;;2.30;;
18166;SDS011;9208;42.688;23.404;2023-07-20T14:31:30;3.20;;;2.40;;
18166;SDS011;9208;42.688;23.404;2023-07-20T14:33:55;5.13;;;2.95;;
18166;SDS011;9208;42.688;23.404;2023-07-20T14:36:21;3.72;;;2.70;;
18166;SDS011;9208;42.688;23.404;2023-07-20T14:38:49;5.18;;;2.50;;
18166;SDS011;9208;42.688;23.404;2023-07-20T14:41:14;7.32;;;2.30;;
18166;SDS011;9208;42.688;23.404;2023-07-20T14:43:39;5.47;;;2.28;;
18166;SDS011;9208;42.688;23.404;2023-07-20T14:46:05;6.20;;;2.60;;
18166;SDS011;9208;42.688;23.404;2023-07-20T14:48:30;5.03;;;2.28;;
18166;SDS011;9208;42.688;23.404;2023-07-20T14:50:55;5.72;;;2.47;;
18166;SDS011;9208;42.688;23.404;2023-07-20T14:53:21;4.38;;;2.40;;
18166;SDS011;9208;42.688;23.404;2023-07-20T14:55:46;6.38;;;2.20;;